createdAt,value
2018-11-28T00:02:59.695Z,26.77
2018-11-28T00:06:12.371Z,27.62
2018-11-28T00:09:27.033Z,28.70
2018-11-28T00:12:43.060Z,27.48
2018-11-28T00:15:56.725Z,24.83
2018-11-28T00:19:10.748Z,25.60
2018-11-28T00:22:25.487Z,28.38
2018-11-28T00:25:40.526Z,24.90
2018-11-28T00:28:53.616Z,25.15
2018-11-28T00:32:07.583Z,26.30
2018-11-28T00:35:22.053Z,27.58
2018-11-28T00:38:35.357Z,22.85
2018-11-28T00:41:49.094Z,25.90
2018-11-28T00:45:05.560Z,27.67
2018-11-28T00:48:19.044Z,25.87
2018-11-28T00:51:37.511Z,24.30
2018-11-28T00:54:57.751Z,24.12
2018-11-28T00:58:12.207Z,22.15
2018-11-28T01:01:26.271Z,23.87
2018-11-28T01:04:41.838Z,22.15
2018-11-28T01:08:01.167Z,21.87
2018-11-28T01:11:15.396Z,21.60
2018-11-28T01:14:28.803Z,23.03
2018-11-28T01:17:44.809Z,25.10
2018-11-28T01:20:59.179Z,24.23
2018-11-28T01:24:12.216Z,22.00
2018-11-28T01:27:25.854Z,20.23
2018-11-28T01:30:40.764Z,20.88
2018-11-28T01:33:54.222Z,21.95
2018-11-28T01:37:05.587Z,20.55
2018-11-28T01:40:22.545Z,22.60
2018-11-28T01:43:33.952Z,21.43
2018-11-28T01:46:45.751Z,23.55
2018-11-28T01:49:58.384Z,21.87
2018-11-28T01:53:09.744Z,21.48
2018-11-28T01:56:21.653Z,22.67
2018-11-28T01:59:33.162Z,19.03
2018-11-28T02:02:44.510Z,19.98
2018-11-28T02:05:56.125Z,20.88
2018-11-28T02:09:09.822Z,20.88
2018-11-28T02:12:21.037Z,19.98
2018-11-28T02:15:32.563Z,21.33
2018-11-28T02:18:44.560Z,21.00
2018-11-28T02:21:56.436Z,23.77
2018-11-28T02:25:09.395Z,19.07
2018-11-28T02:28:20.671Z,21.33
2018-11-28T02:31:32.114Z,18.90
2018-11-28T02:34:43.840Z,18.95
2018-11-28T02:37:55.194Z,19.87
2018-11-28T02:41:06.405Z,20.23
2018-11-28T02:44:17.915Z,22.70
2018-11-28T02:47:29.594Z,19.10
2018-11-28T02:50:41.293Z,19.57
2018-11-28T02:53:52.868Z,18.98
2018-11-28T02:57:04.192Z,21.50
2018-11-28T03:00:25.616Z,22.40
2018-11-28T03:03:37.102Z,17.27
2018-11-28T03:06:48.512Z,20.37
2018-11-28T03:09:59.714Z,23.27
2018-11-28T03:13:11.017Z,20.57
2018-11-28T03:16:22.503Z,21.95
2018-11-28T03:19:33.699Z,21.87
2018-11-28T03:22:45.300Z,19.82
2018-11-28T03:25:57.054Z,21.68
2018-11-28T03:29:08.101Z,23.53
2018-11-28T03:32:20.373Z,19.42
2018-11-28T03:35:32.342Z,19.77
2018-11-28T03:38:43.650Z,19.80
2018-11-28T03:41:55.436Z,20.48
2018-11-28T04:07:19.902Z,18.03
2018-11-28T04:10:32.130Z,21.73
2018-11-28T04:13:43.985Z,22.30
2018-11-28T04:16:55.672Z,20.35
2018-11-28T04:20:11.309Z,20.70
2018-11-28T04:23:23.048Z,19.20
2018-11-28T04:26:34.175Z,18.40
2018-11-28T04:29:45.301Z,20.60
2018-11-28T04:32:56.983Z,20.27
2018-11-28T04:36:08.887Z,19.20
2018-11-28T04:39:19.885Z,21.47
2018-11-28T04:42:31.389Z,20.23
2018-11-28T04:45:42.747Z,20.97
2018-11-28T04:48:54.202Z,18.37
2018-11-28T04:52:06.547Z,20.45
2018-11-28T04:55:19.182Z,21.77
2018-11-28T04:58:30.424Z,22.13
2018-11-28T05:01:42.527Z,19.55
2018-11-28T05:04:53.730Z,19.47
2018-11-28T05:08:05.230Z,20.17
2018-11-28T05:11:17.031Z,18.60
2018-11-28T05:14:29.095Z,18.35
2018-11-28T05:17:41.418Z,20.88
2018-11-28T05:20:53.045Z,20.00
2018-11-28T05:24:04.960Z,20.72
2018-11-28T05:27:16.144Z,19.47
2018-11-28T05:30:30.998Z,18.10
2018-11-28T05:33:42.613Z,19.07
2018-11-28T05:36:54.196Z,19.62
2018-11-28T05:40:08.178Z,16.57
2018-11-28T05:43:19.706Z,21.70
2018-11-28T05:46:31.024Z,23.22
2018-11-28T05:49:42.160Z,19.63
2018-11-28T05:52:53.426Z,18.63
2018-11-28T05:56:05.350Z,21.70
2018-11-28T05:59:16.915Z,16.75
2018-11-28T06:02:28.696Z,19.75
2018-11-28T06:05:42.305Z,18.23
2018-11-28T06:08:53.188Z,19.30
2018-11-28T06:12:05.416Z,19.82
2018-11-28T06:15:17.373Z,19.37
2018-11-28T06:18:29.119Z,17.98
2018-11-28T06:21:40.567Z,19.17
2018-11-28T06:24:52.247Z,17.50
2018-11-28T06:28:04.215Z,19.17
2018-11-28T06:31:15.882Z,18.55
2018-11-28T06:34:27.024Z,19.40
2018-11-28T06:37:38.555Z,20.23
2018-11-28T06:40:50.650Z,17.40
2018-11-28T06:44:02.653Z,18.35
2018-11-28T06:47:14.190Z,18.45
2018-11-28T06:50:26.044Z,17.42
2018-11-28T06:53:38.287Z,17.52
2018-11-28T06:56:49.999Z,18.87
2018-11-28T07:00:01.931Z,18.05
2018-11-28T07:03:13.271Z,17.52
2018-11-28T07:06:24.857Z,18.52
2018-11-28T07:09:36.466Z,16.12
2018-11-28T07:12:48.150Z,16.25
2018-11-28T07:15:59.664Z,16.97
2018-11-28T07:19:12.267Z,17.40
2018-11-28T07:22:23.517Z,21.07
2018-11-28T07:25:35.134Z,16.20
2018-11-28T07:28:47.443Z,17.15
2018-11-28T07:31:58.584Z,16.30
2018-11-28T07:35:15.847Z,17.05
2018-11-28T07:38:26.757Z,15.30
2018-11-28T07:41:38.839Z,18.30
2018-11-28T07:44:50.502Z,18.07
2018-11-28T07:48:01.433Z,17.43
2018-11-28T07:51:13.192Z,17.55
2018-11-28T07:54:24.530Z,16.82
2018-11-28T07:57:35.701Z,17.10
2018-11-28T08:00:47.342Z,15.40
2018-11-28T08:03:59.627Z,17.90
2018-11-28T08:07:11.917Z,15.63
2018-11-28T08:10:24.313Z,20.33
2018-11-28T08:13:36.654Z,20.30
2018-11-28T08:16:48.196Z,18.32
2018-11-28T08:19:59.528Z,16.83
2018-11-28T08:23:11.912Z,17.82
2018-11-28T08:26:23.747Z,19.20
2018-11-28T08:29:35.293Z,15.78
2018-11-28T08:32:46.663Z,17.80
2018-11-28T08:35:57.572Z,16.37
2018-11-28T08:39:10.679Z,15.60
2018-11-28T08:42:22.303Z,16.50
2018-11-28T08:45:34.384Z,18.23
2018-11-28T08:48:45.960Z,19.27
2018-11-28T08:51:57.695Z,14.58
2018-11-28T08:55:12.344Z,17.37
2018-11-28T08:58:23.433Z,16.47
2018-11-28T09:01:35.274Z,18.73
2018-11-28T09:04:46.632Z,15.80
2018-11-28T09:07:58.593Z,16.62
2018-11-28T09:11:10.719Z,18.40
2018-11-28T09:14:21.970Z,16.10
2018-11-28T09:17:33.415Z,15.95
2018-11-28T09:20:45.470Z,14.45
2018-11-28T09:23:56.754Z,15.83
2018-11-28T09:27:09.120Z,16.83
2018-11-28T09:30:22.263Z,16.93
2018-11-28T09:33:33.856Z,15.60
2018-11-28T09:36:45.830Z,13.50
2018-11-28T09:39:56.824Z,15.33
2018-11-28T09:43:09.085Z,15.05
2018-11-28T09:46:20.393Z,15.38
2018-11-28T09:49:32.068Z,14.75
2018-11-28T09:52:43.856Z,12.93
2018-11-28T09:55:54.872Z,14.03
2018-11-28T09:59:06.403Z,12.85
2018-11-28T10:02:18.031Z,14.00
2018-11-28T10:05:33.720Z,14.34
2018-11-28T10:08:45.501Z,16.73
2018-11-28T10:11:57.312Z,18.07
2018-11-28T10:15:20.097Z,13.48
2018-11-28T10:18:32.359Z,14.20
2018-11-28T10:21:44.744Z,13.30
2018-11-28T10:24:56.528Z,14.30
2018-11-28T10:28:09.853Z,11.57
2018-11-28T10:31:20.968Z,12.53
2018-11-28T10:34:33.042Z,11.40
2018-11-28T10:37:44.210Z,12.97
2018-11-28T10:40:56.013Z,12.00
2018-11-28T10:44:07.349Z,12.50
2018-11-28T10:47:18.528Z,14.67
2018-11-28T10:50:30.109Z,12.13
2018-11-28T10:53:42.709Z,14.10
2018-11-28T10:56:54.349Z,10.78
2018-11-28T11:00:14.655Z,11.13
2018-11-28T11:03:32.137Z,11.60
2018-11-28T11:06:49.561Z,10.90
2018-11-28T11:10:05.972Z,11.90
2018-11-28T11:13:22.893Z,12.55
2018-11-28T11:16:34.590Z,10.20
2018-11-28T11:19:46.336Z,12.75
2018-11-28T11:22:57.285Z,13.63
2018-11-28T11:26:08.537Z,11.43
2018-11-28T11:29:19.503Z,14.17
2018-11-28T11:32:31.274Z,12.57
2018-11-28T11:35:42.171Z,14.13
2018-11-28T11:38:54.283Z,13.00
2018-11-28T11:42:06.927Z,13.40
2018-11-28T11:45:18.358Z,14.15
2018-11-28T11:48:30.323Z,11.50
2018-11-28T11:51:42.210Z,12.30
2018-11-28T11:54:53.873Z,15.78
2018-11-28T11:58:05.668Z,12.37
2018-11-28T12:01:18.129Z,13.10
2018-11-28T12:04:30.560Z,12.70
2018-11-28T12:07:42.973Z,14.53
2018-11-28T12:10:55.208Z,12.13
2018-11-28T12:14:07.542Z,14.75
2018-11-28T12:17:18.924Z,13.28
2018-11-28T12:20:34.528Z,14.28
2018-11-28T12:23:45.976Z,12.10
2018-11-28T12:26:58.411Z,15.23
2018-11-28T12:30:14.979Z,16.05
2018-11-28T12:33:27.506Z,11.48
2018-11-28T12:36:40.443Z,14.58
2018-11-28T12:39:52.391Z,10.82
2018-11-28T12:43:06.662Z,10.93
2018-11-28T12:46:17.898Z,10.82
2018-11-28T12:49:28.798Z,10.93
2018-11-28T12:52:40.628Z,11.25
2018-11-28T12:55:52.546Z,9.58
2018-11-28T12:59:04.249Z,8.68
2018-11-28T13:02:17.218Z,10.27
2018-11-28T13:05:29.428Z,10.05
2018-11-28T13:08:40.816Z,10.67
2018-11-28T13:11:52.094Z,10.00
2018-11-28T13:15:04.145Z,8.23
2018-11-28T13:18:15.472Z,9.15
2018-11-28T13:21:26.963Z,8.23
2018-11-28T13:24:39.899Z,9.53
2018-11-28T13:27:51.150Z,10.10
2018-11-28T13:31:02.309Z,9.73
2018-11-28T13:34:13.741Z,9.57
2018-11-28T13:37:25.060Z,8.53
2018-11-28T13:40:36.186Z,10.23
2018-11-28T13:43:47.584Z,8.07
2018-11-28T13:46:59.307Z,9.28
2018-11-28T13:50:12.966Z,8.43
2018-11-28T13:53:26.177Z,8.83
2018-11-28T13:59:50.054Z,7.92
2018-11-28T14:03:01.506Z,7.07
2018-11-28T14:06:13.057Z,9.67
2018-11-28T14:09:24.227Z,9.33
2018-11-28T14:12:35.218Z,9.23
2018-11-28T14:15:46.604Z,7.60
2018-11-28T14:18:57.868Z,9.33
2018-11-28T14:22:09.912Z,8.58
2018-11-28T14:25:22.254Z,8.35
2018-11-28T14:28:34.083Z,7.50
2018-11-28T14:31:46.888Z,9.15
2018-11-28T14:34:58.259Z,8.93
2018-11-28T14:38:10.769Z,9.28
2018-11-28T14:41:23.092Z,8.73
2018-11-28T14:44:34.492Z,7.40
2018-11-28T14:47:47.130Z,9.90
2018-11-28T14:50:59.164Z,8.97
2018-11-28T14:54:10.204Z,9.53
2018-11-28T14:57:21.889Z,10.30
2018-11-28T15:00:33.969Z,11.90
2018-11-28T15:03:45.364Z,13.15
2018-11-28T15:07:01.343Z,12.43
2018-11-28T15:10:15.029Z,13.93
2018-11-28T15:13:26.067Z,15.57
2018-11-28T15:16:38.103Z,16.87
2018-11-28T15:19:49.415Z,15.80
2018-11-28T15:23:01.423Z,23.47
2018-11-28T15:26:12.835Z,19.93
2018-11-28T15:29:24.855Z,18.62
2018-11-28T15:32:36.279Z,15.48
2018-11-28T15:35:48.072Z,14.63
2018-11-28T15:38:58.966Z,13.60
2018-11-28T15:42:10.342Z,14.57
2018-11-28T15:45:21.863Z,12.37
2018-11-28T15:48:35.063Z,13.13
2018-11-28T15:51:46.633Z,12.28
2018-11-28T15:54:58.864Z,13.45
2018-11-28T15:58:11.577Z,12.75
2018-11-28T16:01:23.393Z,14.30
2018-11-28T16:04:35.156Z,12.57
2018-11-28T16:07:46.301Z,14.90
2018-11-28T16:10:57.478Z,10.98
2018-11-28T16:14:09.597Z,11.60
2018-11-28T16:17:21.133Z,13.40
2018-11-28T16:20:32.534Z,12.43
2018-11-28T16:23:43.869Z,12.00
2018-11-28T16:26:55.503Z,13.00
2018-11-28T16:30:12.814Z,11.90
2018-11-28T16:33:24.305Z,13.75
2018-11-28T16:36:35.682Z,11.33
2018-11-28T16:39:47.715Z,12.47
2018-11-28T16:42:58.355Z,14.70
2018-11-28T16:46:09.676Z,12.90
2018-11-28T16:49:20.642Z,14.90
2018-11-28T16:52:32.230Z,13.30
2018-11-28T16:55:44.867Z,13.60
2018-11-28T16:58:56.871Z,15.67
2018-11-28T17:02:08.922Z,12.35
2018-11-28T17:05:27.474Z,13.25
2018-11-28T17:08:40.122Z,14.60
2018-11-28T17:11:51.291Z,12.30
2018-11-28T17:15:07.761Z,12.87
2018-11-28T17:18:18.600Z,14.05
2018-11-28T17:21:30.625Z,14.45
2018-11-28T17:24:41.807Z,13.45
2018-11-28T17:27:53.037Z,12.37
2018-11-28T17:31:05.249Z,14.43
2018-11-28T17:34:16.428Z,17.13
2018-11-28T17:37:27.639Z,13.23
2018-11-28T17:40:39.773Z,15.47
2018-11-28T17:43:52.645Z,15.45
2018-11-28T17:47:04.200Z,18.02
2018-11-28T17:50:20.761Z,14.68
2018-11-28T17:53:31.586Z,14.30
2018-11-28T17:56:43.836Z,16.73
2018-11-28T17:59:54.899Z,15.03
2018-11-28T18:03:07.174Z,14.60
2018-11-28T18:06:18.987Z,13.43
2018-11-28T18:09:52.479Z,15.03
2018-11-28T18:13:12.732Z,16.45
2018-11-28T18:16:23.753Z,14.47
2018-11-28T18:19:36.320Z,14.87
2018-11-28T18:22:48.006Z,17.10
2018-11-28T18:26:00.162Z,15.45
2018-11-28T18:29:11.858Z,15.60
2018-11-28T18:32:23.898Z,16.73
2018-11-28T18:35:35.525Z,14.70
2018-11-28T18:38:47.298Z,13.40
2018-11-28T18:41:58.340Z,13.93
2018-11-28T18:45:29.601Z,13.18
2018-11-28T18:48:41.337Z,15.40
2018-11-28T18:51:53.372Z,12.60
2018-11-28T18:55:05.356Z,13.38
2018-11-28T18:58:16.970Z,15.65
2018-11-28T19:01:28.418Z,13.80
2018-11-28T19:04:40.690Z,12.98
2018-11-28T19:07:52.195Z,12.80
2018-11-28T19:11:04.434Z,14.45
2018-11-28T19:14:16.296Z,14.05
2018-11-28T19:17:27.496Z,12.07
2018-11-28T19:20:39.568Z,13.67
2018-11-28T19:23:50.727Z,12.15
2018-11-28T19:27:02.054Z,12.97
2018-11-28T19:30:21.213Z,11.73
2018-11-28T19:33:33.076Z,11.05
2018-11-28T19:36:44.832Z,12.37
2018-11-28T19:39:56.892Z,12.30
2018-11-28T19:43:08.927Z,11.55
2018-11-28T19:46:20.966Z,14.13
2018-11-28T19:49:32.588Z,10.80
2018-11-28T19:52:43.609Z,10.60
2018-11-28T19:55:54.895Z,12.05
2018-11-28T19:59:06.734Z,10.90
2018-11-28T20:02:18.898Z,13.50
2018-11-28T20:05:30.433Z,12.13
2018-11-28T20:08:41.594Z,11.60
2018-11-28T20:11:53.698Z,14.10
2018-11-28T20:15:08.264Z,13.00
2018-11-28T20:18:19.934Z,8.70
2018-11-28T20:21:30.940Z,8.90
2018-11-28T20:24:42.341Z,9.07
2018-11-28T20:27:55.873Z,9.45
2018-11-28T20:31:07.675Z,12.23
2018-11-28T20:34:19.054Z,10.15
2018-11-28T20:37:30.190Z,9.50
2018-11-28T20:40:41.923Z,10.00
2018-11-28T20:43:54.166Z,11.37
2018-11-28T20:47:07.056Z,13.10
2018-11-28T20:50:23.432Z,12.16
2018-11-28T20:53:34.996Z,8.83
2018-11-28T20:56:46.717Z,10.27
2018-11-28T20:59:57.942Z,12.93
2018-11-28T21:03:10.338Z,12.17
2018-11-28T21:06:21.958Z,10.18
2018-11-28T21:09:33.049Z,11.30
2018-11-28T21:12:45.157Z,11.37
2018-11-28T21:15:57.139Z,10.58
2018-11-28T21:19:09.082Z,11.88
2018-11-28T21:22:20.414Z,9.77
2018-11-28T21:25:31.593Z,10.45
2018-11-28T21:28:43.021Z,9.80
2018-11-28T21:31:54.345Z,10.38
2018-11-28T21:35:14.629Z,10.97
2018-11-28T21:38:26.464Z,9.35
2018-11-28T21:41:38.391Z,11.12
2018-11-28T21:44:49.652Z,9.65
2018-11-28T21:48:00.791Z,10.87
2018-11-28T21:51:12.285Z,8.50
2018-11-28T21:54:23.971Z,10.10
2018-11-28T21:57:34.864Z,11.63
2018-11-28T22:00:46.513Z,9.10
2018-11-28T22:03:57.671Z,8.33
2018-11-28T22:07:08.930Z,9.20
2018-11-28T22:10:23.981Z,8.90
2018-11-28T22:13:36.602Z,8.33
2018-11-28T22:16:47.968Z,9.10
2018-11-28T22:20:00.113Z,8.48
2018-11-28T22:23:11.312Z,8.20
2018-11-28T22:26:23.016Z,8.47
2018-11-28T22:29:34.269Z,9.40
2018-11-28T22:32:45.749Z,7.33
2018-11-28T22:35:57.068Z,9.08
2018-11-28T22:39:10.304Z,8.33
2018-11-28T22:42:21.804Z,5.83
2018-11-28T22:45:36.143Z,6.87
2018-11-28T22:48:49.014Z,8.10
2018-11-28T22:52:01.006Z,9.40
2018-11-28T22:55:15.681Z,7.20
2018-11-28T22:58:26.883Z,6.10
2018-11-28T23:03:46.830Z,7.90
2018-11-28T23:06:58.731Z,7.35
2018-11-28T23:10:10.637Z,7.12
2018-11-28T23:13:26.416Z,6.70
2018-11-28T23:16:38.383Z,9.03
2018-11-28T23:19:50.499Z,7.42
2018-11-28T23:23:02.347Z,8.65
2018-11-28T23:26:13.746Z,7.60
2018-11-28T23:29:24.686Z,7.93
2018-11-28T23:32:36.719Z,8.00
2018-11-28T23:35:48.032Z,6.58
2018-11-28T23:38:59.553Z,7.97
2018-11-28T23:42:10.869Z,8.13
2018-11-28T23:45:22.271Z,8.33
2018-11-28T23:48:34.122Z,7.78
2018-11-28T23:51:45.722Z,9.00
2018-11-28T23:54:56.883Z,7.60
2018-11-28T23:58:08.077Z,8.70
